Time;durP1;ratioP1;P1;durP2;ratioP2;P2;SDS_P1;SDS_P2;PMS_P1;PMS_P2;Temp;Humidity;BMP_temperature;BMP_pressure;BME280_temperature;BME280_humidity;BME280_pressure;Samples;Min_cycle;Max_cycle;Signal;HPM_P1;HPM_P2
2022/12/22 03:25:53;;;;;;;23.60;18.30;;;12.70;99.90;;;;;;4593412;19;19994;-29
2022/12/22 03:27:25;;;;;;;24.47;19.17;;;12.70;99.90;;;;;;4593286;19;20091;-27
2022/12/22 03:28:56;;;;;;;23.38;19.40;;;12.60;99.90;;;;;;4591767;19;20014;-29
2022/12/22 03:30:27;;;;;;;35.92;25.60;;;12.70;99.90;;;;;;4592903;19;20011;-30
2022/12/22 03:31:59;;;;;;;51.08;36.67;;;12.60;99.90;;;;;;4593194;19;20014;-27
2022/12/22 03:33:30;;;;;;;64.18;43.05;;;12.60;99.90;;;;;;4593469;19;20007;-31
2022/12/22 03:35:01;;;;;;;76.78;50.15;;;12.60;99.90;;;;;;4591744;19;20045;-29
2022/12/22 03:36:32;;;;;;;80.93;55.15;;;12.60;99.90;;;;;;4592601;19;20014;-30
2022/12/22 03:38:03;;;;;;;62.80;45.90;;;12.70;99.90;;;;;;4591492;19;20014;-28
2022/12/22 03:39:34;;;;;;;31.95;25.00;;;12.70;99.90;;;;;;4592147;19;20014;-27
2022/12/22 03:41:06;;;;;;;26.55;21.60;;;12.60;99.90;;;;;;4592928;19;20070;-29
2022/12/22 03:46:29;;;;;;;26.77;20.17;;;12.60;99.90;;;;;;4592514;19;20409;-30
2022/12/22 03:48:00;;;;;;;26.90;20.60;;;12.60;99.90;;;;;;4592137;19;19995;-27
2022/12/22 03:49:31;;;;;;;24.38;19.55;;;12.70;99.90;;;;;;4590130;19;20074;-31
2022/12/22 03:51:02;;;;;;;22.95;19.30;;;12.60;99.90;;;;;;4592084;19;20018;-28
2022/12/22 03:52:33;;;;;;;27.38;20.40;;;12.60;99.90;;;;;;4592960;19;20033;-29
2022/12/22 03:54:05;;;;;;;26.05;19.58;;;12.70;99.90;;;;;;4592246;19;20011;-27
2022/12/22 03:55:36;;;;;;;26.23;20.02;;;12.60;99.90;;;;;;4592487;19;20069;-27
2022/12/22 03:57:07;;;;;;;24.75;19.42;;;12.70;99.90;;;;;;4593151;19;20003;-30
2022/12/22 03:58:38;;;;;;;28.50;19.77;;;12.70;99.90;;;;;;4589620;19;20384;-28
2022/12/22 04:00:10;;;;;;;24.52;18.83;;;12.60;99.90;;;;;;4589679;19;20011;-28
2022/12/22 04:01:43;;;;;;;31.70;21.83;;;12.70;99.90;;;;;;4592483;19;20062;-28
2022/12/22 04:03:14;;;;;;;34.60;22.40;;;12.60;99.90;;;;;;4591983;19;20011;-29
2022/12/22 04:04:45;;;;;;;25.52;18.35;;;12.60;99.90;;;;;;4591704;19;20011;-30
2022/12/22 04:06:17;;;;;;;24.00;18.98;;;12.60;99.90;;;;;;4592296;19;20017;-28
2022/12/22 04:07:48;;;;;;;23.58;17.88;;;12.60;99.90;;;;;;4592205;19;20472;-29
2022/12/22 04:09:21;;;;;;;23.15;16.75;;;12.60;99.90;;;;;;4591504;19;20007;-28
2022/12/22 04:12:53;;;;;;;23.30;17.53;;;12.60;99.90;;;;;;4591863;19;20500;-28
2022/12/22 04:14:25;;;;;;;26.37;19.10;;;12.60;99.90;;;;;;4592372;19;20434;-28
2022/12/22 04:15:56;;;;;;;24.23;17.92;;;12.70;99.90;;;;;;4592458;19;20421;-29
2022/12/22 04:17:27;;;;;;;20.15;16.65;;;12.60;99.90;;;;;;4592572;19;20018;-28
2022/12/22 04:18:59;;;;;;;21.88;17.48;;;12.70;99.90;;;;;;4591745;19;20011;-27
2022/12/22 04:20:30;;;;;;;;;;;12.60;99.90;;;;;;4593156;19;20464;-27
2022/12/22 04:22:01;;;;;;;21.57;16.67;;;12.70;99.90;;;;;;4591835;19;19918;-29
2022/12/22 04:23:32;;;;;;;24.60;17.23;;;12.70;99.90;;;;;;4592124;19;20436;-27
2022/12/22 04:25:04;;;;;;;22.88;17.75;;;12.70;99.90;;;;;;4590775;19;20364;-28
2022/12/22 04:26:35;;;;;;;21.02;16.80;;;12.60;99.90;;;;;;4589083;19;20374;-27
2022/12/22 04:28:06;;;;;;;22.13;16.70;;;12.60;99.90;;;;;;4591163;19;20066;-29
2022/12/22 04:29:38;;;;;;;22.50;17.20;;;12.60;99.90;;;;;;4591511;19;20049;-30
2022/12/22 04:31:09;;;;;;;23.50;17.65;;;12.60;99.90;;;;;;4591952;19;20078;-28
2022/12/22 04:32:40;;;;;;;20.58;17.10;;;12.70;99.90;;;;;;4590882;19;20512;-29
2022/12/22 04:34:11;;;;;;;21.65;17.60;;;12.70;99.90;;;;;;4590949;19;20077;-30
2022/12/22 04:35:43;;;;;;;22.13;17.10;;;12.70;99.90;;;;;;4591206;19;20043;-29
2022/12/22 04:37:14;;;;;;;20.88;17.05;;;12.60;99.90;;;;;;4591525;19;20096;-28
2022/12/22 04:38:45;;;;;;;21.38;16.13;;;12.60;99.90;;;;;;4591664;19;20052;-30
2022/12/22 04:40:16;;;;;;;21.40;17.90;;;12.60;99.90;;;;;;4592087;19;20014;-29
2022/12/22 04:41:47;;;;;;;21.90;16.42;;;12.60;99.90;;;;;;4591188;19;20010;-28
2022/12/22 04:43:19;;;;;;;23.70;17.52;;;12.60;99.90;;;;;;4591295;19;20406;-28
2022/12/22 04:44:50;;;;;;;21.08;17.25;;;12.60;99.90;;;;;;4591204;19;20011;-28
2022/12/22 04:46:22;;;;;;;19.10;15.43;;;12.60;99.90;;;;;;4591584;19;20021;-28
2022/12/22 04:47:54;;;;;;;22.20;17.43;;;12.60;99.90;;;;;;4591337;19;20044;-29
2022/12/22 04:49:25;;;;;;;20.58;16.27;;;12.70;99.90;;;;;;4590080;19;20082;-29
2022/12/22 04:50:57;;;;;;;19.38;15.07;;;12.60;99.90;;;;;;4591903;19;20062;-28
2022/12/22 04:52:29;;;;;;;23.10;18.00;;;12.60;99.90;;;;;;4590085;19;20015;-29
2022/12/22 04:54:00;;;;;;;23.45;17.30;;;12.60;99.90;;;;;;4591128;19;20015;-29
2022/12/22 04:55:31;;;;;;;21.35;18.35;;;12.70;99.90;;;;;;4591776;19;20011;-29
2022/12/22 04:57:03;;;;;;;21.42;16.42;;;12.60;99.90;;;;;;4591057;19;20022;-28
2022/12/22 04:58:34;;;;;;;22.88;18.15;;;12.70;99.90;;;;;;4591163;19;20026;-29
2022/12/22 05:00:07;;;;;;;22.88;17.92;;;12.60;99.90;;;;;;4590232;19;20027;-27
2022/12/22 05:01:39;;;;;;;20.37;16.50;;;12.60;99.90;;;;;;4590892;19;20018;-27
2022/12/22 05:03:10;;;;;;;20.55;16.25;;;12.60;99.90;;;;;;4591040;19;20018;-27
2022/12/22 05:04:41;;;;;;;22.27;16.65;;;12.70;99.90;;;;;;4590162;19;20010;-27
2022/12/22 05:06:13;;;;;;;22.92;17.42;;;12.60;99.90;;;;;;4591337;19;20015;-27
2022/12/22 05:07:44;;;;;;;21.42;16.35;;;12.70;99.90;;;;;;4591185;19;20018;-29
2022/12/22 05:09:15;;;;;;;20.17;16.33;;;12.60;99.90;;;;;;4588710;19;20015;-30
2022/12/22 05:10:46;;;;;;;23.58;18.08;;;12.70;99.90;;;;;;4589965;19;20010;-27
2022/12/22 05:14:07;;;;;;;20.50;16.03;;;12.60;99.90;;;;;;4590913;19;20021;-29
2022/12/22 05:15:38;;;;;;;18.55;15.10;;;12.60;99.90;;;;;;4590649;19;20027;-29
2022/12/22 05:17:09;;;;;;;20.73;16.90;;;12.60;99.90;;;;;;4590850;19;20010;-29
2022/12/22 05:18:41;;;;;;;20.35;16.30;;;12.60;99.90;;;;;;4591020;19;20471;-29
2022/12/22 05:20:13;;;;;;;20.77;17.13;;;12.60;99.90;;;;;;4591151;19;20015;-28
2022/12/22 05:21:44;;;;;;;20.10;16.55;;;12.60;99.90;;;;;;4590614;19;20018;-27
2022/12/22 05:23:15;;;;;;;21.15;17.77;;;12.60;99.90;;;;;;4590635;19;20074;-27
2022/12/22 05:24:47;;;;;;;24.10;19.08;;;12.60;99.90;;;;;;4590617;19;20018;-27
2022/12/22 05:26:18;;;;;;;23.05;19.10;;;12.70;99.90;;;;;;4591191;19;20011;-26
2022/12/22 05:27:49;;;;;;;21.38;17.23;;;12.70;99.90;;;;;;4589276;19;20070;-28
2022/12/22 05:29:21;;;;;;;;;;;12.80;99.90;;;;;;4589914;19;20047;-28
2022/12/22 05:30:52;;;;;;;23.60;18.00;;;12.70;99.90;;;;;;4589277;19;20321;-29
2022/12/22 05:32:23;;;;;;;26.75;20.50;;;12.80;99.90;;;;;;4589516;19;20024;-28
2022/12/22 05:33:55;;;;;;;27.23;19.85;;;12.80;99.90;;;;;;4590063;19;20010;-29
2022/12/22 05:35:26;;;;;;;26.83;21.30;;;12.80;99.90;;;;;;4590769;19;20029;-27
2022/12/22 05:36:57;;;;;;;25.30;19.77;;;12.80;99.90;;;;;;4590303;19;20050;-30
2022/12/22 05:38:28;;;;;;;26.55;20.23;;;12.80;99.90;;;;;;4590036;19;20021;-31
2022/12/22 05:39:59;;;;;;;26.55;19.73;;;12.80;99.90;;;;;;4590338;19;20015;-28
2022/12/22 05:41:30;;;;;;;26.80;20.05;;;12.80;99.90;;;;;;4589052;19;20018;-28
2022/12/22 05:43:02;;;;;;;24.30;19.00;;;12.80;99.90;;;;;;4590036;19;20356;-30
2022/12/22 05:44:33;;;;;;;24.33;19.27;;;12.80;99.90;;;;;;4590085;19;20070;-27
2022/12/22 05:46:06;;;;;;;24.30;18.70;;;12.80;99.90;;;;;;4589901;19;20071;-29
2022/12/22 05:47:38;;;;;;;24.77;18.77;;;12.80;99.90;;;;;;4589124;19;20500;-29
2022/12/22 05:49:09;;;;;;;19.98;16.88;;;12.80;99.90;;;;;;4588115;19;20026;-29
2022/12/22 05:50:40;;;;;;;21.48;17.52;;;12.80;99.90;;;;;;4589777;19;20031;-30
2022/12/22 05:52:12;;;;;;;21.00;17.60;;;12.80;99.90;;;;;;4588752;19;20066;-28
2022/12/22 05:53:43;;;;;;;19.45;16.63;;;12.80;99.90;;;;;;4590085;19;20031;-27
2022/12/22 05:55:14;;;;;;;21.98;16.08;;;12.80;99.90;;;;;;4590333;19;20366;-29
2022/12/22 05:56:46;;;;;;;20.80;16.77;;;12.80;99.90;;;;;;4589917;19;20035;-29
2022/12/22 05:58:17;;;;;;;20.88;16.50;;;12.80;99.90;;;;;;4590171;19;20487;-27
2022/12/22 05:59:48;;;;;;;19.02;15.32;;;12.80;99.90;;;;;;4590308;19;20006;-29
2022/12/22 06:01:19;;;;;;;20.42;15.93;;;12.70;99.90;;;;;;4588672;19;20011;-32
2022/12/22 06:02:50;;;;;;;21.42;15.98;;;12.80;99.90;;;;;;4589130;19;20353;-31
2022/12/22 06:04:22;;;;;;;22.02;16.17;;;12.80;99.90;;;;;;4589390;19;20086;-30
2022/12/22 06:05:53;;;;;;;23.88;16.85;;;12.80;99.90;;;;;;4588967;19;20018;-29
2022/12/22 06:07:24;;;;;;;20.00;16.27;;;12.70;99.90;;;;;;4589541;19;20011;-30
2022/12/22 06:08:55;;;;;;;20.45;16.77;;;12.80;99.90;;;;;;4589270;19;20472;-28
2022/12/22 06:10:27;;;;;;;23.60;17.88;;;12.70;99.90;;;;;;4589021;19;20002;-27
2022/12/22 06:11:58;;;;;;;22.95;17.77;;;12.70;99.90;;;;;;4589323;19;20003;-28
2022/12/22 06:13:29;;;;;;;22.50;16.52;;;12.70;99.90;;;;;;4589588;19;20011;-28
2022/12/22 06:15:00;;;;;;;19.20;15.93;;;12.70;99.90;;;;;;4589857;19;20047;-28
2022/12/22 06:16:32;;;;;;;25.00;18.10;;;12.70;99.90;;;;;;4588200;19;20051;-27
2022/12/22 06:18:03;;;;;;;20.92;16.15;;;12.70;99.90;;;;;;4590654;19;20069;-29
2022/12/22 06:19:34;;;;;;;21.40;17.77;;;12.70;99.90;;;;;;4591068;19;20070;-26
2022/12/22 06:21:05;;;;;;;20.40;17.25;;;12.70;99.90;;;;;;4590185;19;20010;-27
2022/12/22 06:22:37;;;;;;;18.50;15.10;;;12.70;99.90;;;;;;4593038;19;20014;-28
2022/12/22 06:24:08;;;;;;;20.85;17.40;;;12.70;99.90;;;;;;4593933;19;20054;-29
2022/12/22 06:25:39;;;;;;;19.10;15.23;;;12.70;99.90;;;;;;4595649;19;20010;-29
2022/12/22 06:27:11;;;;;;;19.13;16.17;;;12.70;99.90;;;;;;4596297;19;20015;-29
2022/12/22 06:28:42;;;;;;;22.27;16.90;;;12.70;99.90;;;;;;4595508;19;20031;-29
2022/12/22 06:30:14;;;;;;;22.88;17.52;;;12.70;99.90;;;;;;4595362;19;20479;-28
2022/12/22 06:31:45;;;;;;;21.27;17.07;;;12.70;99.90;;;;;;4594242;19;20015;-28
2022/12/22 06:33:17;;;;;;;19.92;16.23;;;12.70;99.90;;;;;;4597014;19;20021;-29
2022/12/22 06:34:48;;;;;;;20.85;16.65;;;12.70;99.90;;;;;;4596038;19;20345;-29
2022/12/22 06:36:19;;;;;;;23.17;17.33;;;12.70;99.90;;;;;;4594305;19;20011;-27
2022/12/22 06:37:50;;;;;;;20.92;16.73;;;12.60;99.90;;;;;;4596049;19;20033;-27
2022/12/22 06:39:21;;;;;;;21.08;17.50;;;12.70;99.90;;;;;;4594664;19;20496;-28
2022/12/22 06:40:52;;;;;;;21.70;16.77;;;12.60;99.90;;;;;;4593881;19;20011;-28
2022/12/22 06:44:13;;;;;;;20.33;17.50;;;12.70;99.90;;;;;;4596070;19;20018;-27
2022/12/22 06:45:44;;;;;;;20.80;16.60;;;12.60;99.90;;;;;;4595065;19;20364;-27
2022/12/22 06:47:16;;;;;;;21.45;17.27;;;12.60;99.90;;;;;;4594609;19;20346;-28
2022/12/22 06:48:47;;;;;;;19.38;16.15;;;12.70;99.90;;;;;;4592935;19;20066;-29
2022/12/22 06:50:18;;;;;;;20.30;16.48;;;12.60;99.90;;;;;;4596352;19;20040;-31
2022/12/22 06:51:50;;;;;;;24.48;20.23;;;12.60;99.90;;;;;;4595691;19;20066;-29
2022/12/22 06:53:21;;;;;;;22.92;19.85;;;12.60;99.90;;;;;;4592853;19;20049;-28
2022/12/22 06:54:52;;;;;;;21.88;17.25;;;12.60;99.90;;;;;;4595908;19;20011;-30
2022/12/22 06:56:23;;;;;;;20.23;17.42;;;12.70;99.90;;;;;;4594576;19;20113;-29
2022/12/22 06:57:54;;;;;;;20.30;16.23;;;12.60;99.90;;;;;;4593300;19;20022;-28
2022/12/22 06:59:25;;;;;;;20.45;15.75;;;12.60;99.90;;;;;;4592461;19;20033;-29
2022/12/22 07:00:57;;;;;;;22.85;17.05;;;12.60;99.90;;;;;;4593238;19;20075;-29
2022/12/22 07:02:28;;;;;;;23.02;17.38;;;12.60;99.90;;;;;;4594149;19;20018;-31
2022/12/22 07:03:59;;;;;;;22.80;18.00;;;12.60;99.90;;;;;;4592844;19;20409;-28
2022/12/22 07:05:31;;;;;;;24.35;20.98;;;12.60;99.90;;;;;;4595481;19;20397;-29
2022/12/22 07:07:02;;;;;;;26.50;23.02;;;12.60;99.90;;;;;;4593742;19;20006;-29
2022/12/22 07:08:33;;;;;;;28.83;24.08;;;12.60;99.90;;;;;;4592773;19;20033;-31
2022/12/22 07:10:05;;;;;;;25.60;21.85;;;12.60;99.90;;;;;;4593273;19;20011;-29
2022/12/22 07:11:36;;;;;;;23.45;20.23;;;12.60;99.90;;;;;;4593194;19;20352;-28
2022/12/22 07:13:18;;;;;;;26.10;19.92;;;12.60;99.90;;;;;;4594817;19;20369;-28
2022/12/22 07:14:50;;;;;;;20.13;16.50;;;12.60;99.90;;;;;;4595121;19;20360;-28
2022/12/22 07:16:22;;;;;;;22.07;17.97;;;12.60;99.90;;;;;;4593813;19;20021;-29
2022/12/22 07:17:53;;;;;;;19.73;16.80;;;12.60;99.90;;;;;;4592665;19;20437;-29
2022/12/22 07:19:25;;;;;;;18.88;16.27;;;12.60;99.90;;;;;;4592497;19;20029;-28
2022/12/22 07:20:56;;;;;;;20.95;17.00;;;12.70;99.90;;;;;;4593454;19;20018;-27
2022/12/22 07:22:27;;;;;;;22.02;18.20;;;12.70;99.90;;;;;;4593205;19;20015;-29
2022/12/22 07:23:59;;;;;;;19.88;16.30;;;12.70;99.90;;;;;;4595297;19;20074;-28
2022/12/22 07:25:30;;;;;;;22.88;18.13;;;12.70;99.90;;;;;;4593751;19;20018;-28
2022/12/22 07:27:01;;;;;;;23.65;18.15;;;12.70;99.90;;;;;;4594690;19;20021;-28
2022/12/22 07:28:33;;;;;;;;;;;12.70;99.90;;;;;;4595208;19;20483;-30
2022/12/22 07:30:05;;;;;;;23.35;18.35;;;12.80;99.90;;;;;;4592698;19;20308;-28
2022/12/22 07:31:36;;;;;;;26.88;20.45;;;12.80;99.90;;;;;;4594393;19;20471;-27
2022/12/22 07:33:08;;;;;;;28.52;19.75;;;12.90;99.90;;;;;;4594956;19;20078;-29
2022/12/22 07:34:39;;;;;;;25.05;18.55;;;12.90;99.90;;;;;;4592011;19;20429;-27
2022/12/22 07:36:15;;;;;;;26.48;19.15;;;12.90;99.90;;;;;;4591954;19;20045;-28
2022/12/22 07:37:47;;;;;;;23.20;18.17;;;12.90;99.90;;;;;;4592373;19;20032;-29
2022/12/22 07:39:18;;;;;;;;;;;12.90;99.90;;;;;;4594057;19;19999;-29
2022/12/22 07:40:49;;;;;;;26.50;18.03;;;12.90;99.90;;;;;;4593781;19;19947;-28
2022/12/22 07:44:10;;;;;;;23.43;18.40;;;12.90;99.90;;;;;;4593089;19;20033;-30
2022/12/22 07:45:41;;;;;;;23.17;19.42;;;12.90;99.90;;;;;;4594237;19;20010;-28
2022/12/22 07:47:13;;;;;;;26.52;20.27;;;13.00;99.90;;;;;;4592385;19;20084;-28
2022/12/22 07:50:34;;;;;;;28.40;23.50;;;13.00;99.90;;;;;;4593095;19;20037;-27
2022/12/22 07:52:05;;;;;;;27.77;24.58;;;13.00;99.90;;;;;;4594202;19;20013;-29
2022/12/22 07:53:38;;;;;;;28.63;24.25;;;13.00;99.90;;;;;;4594252;19;20017;-30
2022/12/22 07:55:10;;;;;;;24.80;22.13;;;13.00;99.90;;;;;;4593217;19;20007;-32
2022/12/22 07:56:41;;;;;;;23.20;20.48;;;13.00;99.90;;;;;;4592683;19;20010;-29
2022/12/22 07:58:13;;;;;;;23.25;18.88;;;13.00;99.90;;;;;;4591427;19;20018;-29
2022/12/22 07:59:44;;;;;;;23.02;18.48;;;13.00;99.90;;;;;;4591649;19;20033;-29
2022/12/22 08:01:17;;;;;;;23.00;18.45;;;13.00;99.90;;;;;;4592533;19;20014;-30
2022/12/22 08:02:49;;;;;;;23.13;19.50;;;13.00;99.90;;;;;;4590815;19;20472;-27
2022/12/22 08:04:21;;;;;;;23.80;19.10;;;13.10;99.90;;;;;;4592018;19;20015;-26
2022/12/22 08:05:52;;;;;;;27.63;22.47;;;13.00;99.70;;;;;;4594422;19;20014;-29
2022/12/22 08:07:24;;;;;;;25.83;22.92;;;11.30;99.90;;;;;;4593164;19;20483;-27
2022/12/22 08:08:55;;;;;;;30.00;24.65;;;10.20;99.90;;;;;;4591659;19;20456;-27
2022/12/22 08:10:26;;;;;;;30.15;25.85;;;9.70;99.90;;;;;;4591533;19;20018;-28
2022/12/22 08:11:57;;;;;;;28.55;25.30;;;9.50;99.90;;;;;;4591918;19;20094;-28
2022/12/22 08:13:28;;;;;;;31.17;27.15;;;9.40;99.90;;;;;;4592611;19;20019;-28
2022/12/22 08:15:00;;;;;;;37.40;31.30;;;9.30;99.90;;;;;;4591990;19;20340;-28
2022/12/22 08:16:31;;;;;;;34.70;30.20;;;9.30;99.90;;;;;;4590654;19;20015;-27
2022/12/22 08:18:02;;;;;;;51.70;42.22;;;9.30;99.90;;;;;;4591381;19;20010;-30
2022/12/22 08:19:34;;;;;;;48.58;40.53;;;9.30;99.90;;;;;;4591221;19;20006;-29
2022/12/22 08:21:05;;;;;;;45.35;37.70;;;9.20;99.90;;;;;;4592380;19;20014;-27
2022/12/22 08:22:37;;;;;;;43.28;37.28;;;9.40;99.90;;;;;;4593605;19;20022;-28
2022/12/22 08:24:09;;;;;;;48.43;37.00;;;10.00;99.90;;;;;;4592166;19;20022;-28
2022/12/22 08:25:41;;;;;;;39.63;31.42;;;10.50;99.90;;;;;;4592242;19;20463;-28
2022/12/22 08:27:13;;;;;;;40.78;29.80;;;10.90;99.90;;;;;;4590550;19;20010;-29
2022/12/22 08:29:06;;;;;;;35.17;27.83;;;11.20;99.90;;;;;;4589670;19;20090;-29
2022/12/22 08:30:37;;;;;;;35.07;27.23;;;11.50;99.90;;;;;;4591641;19;20432;-28
2022/12/22 08:32:09;;;;;;;36.30;27.75;;;11.70;99.90;;;;;;4589507;19;21056;-31
2022/12/22 08:33:41;;;;;;;25.47;21.30;;;11.70;99.90;;;;;;4590826;19;20015;-29
2022/12/22 08:35:12;;;;;;;24.15;19.05;;;11.80;99.90;;;;;;4590200;19;20490;-28
2022/12/22 08:36:47;;;;;;;22.42;17.90;;;11.90;99.90;;;;;;4590528;19;20042;-28
2022/12/22 08:38:19;;;;;;;22.87;17.77;;;12.00;99.90;;;;;;4593066;19;20014;-29
2022/12/22 08:39:53;;;;;;;26.10;19.80;;;12.00;99.90;;;;;;4590775;19;20478;-29
2022/12/22 08:43:14;;;;;;;25.87;19.73;;;12.10;99.90;;;;;;4590506;19;20531;-29
2022/12/22 08:44:51;;;;;;;28.92;21.20;;;12.20;99.90;;;;;;4590198;19;21080;-29
2022/12/22 08:46:23;;;;;;;22.80;18.53;;;12.20;99.90;;;;;;4590365;19;20074;-28
2022/12/22 08:47:54;;;;;;;22.30;17.67;;;12.30;99.90;;;;;;4593205;19;20552;-29
2022/12/22 08:49:25;;;;;;;22.38;17.65;;;12.30;99.90;;;;;;4590266;19;20472;-28
2022/12/22 08:50:57;;;;;;;23.88;18.63;;;12.30;99.90;;;;;;4589888;19;20054;-31
2022/12/22 08:52:29;;;;;;;;;;;12.40;99.90;;;;;;4592143;19;20455;-29
2022/12/22 08:54:00;;;;;;;26.33;19.50;;;12.40;99.90;;;;;;4591006;19;19919;-30
2022/12/22 08:55:31;;;;;;;30.75;22.20;;;12.40;99.90;;;;;;4592175;19;20010;-29
2022/12/22 08:57:03;;;;;;;31.67;22.05;;;12.40;99.90;;;;;;4592911;19;20049;-29
2022/12/22 08:58:34;;;;;;;22.27;18.92;;;12.50;99.90;;;;;;4593486;19;20017;-29
2022/12/22 09:00:07;;;;;;;26.67;19.95;;;12.40;99.90;;;;;;4593516;19;20519;-33
2022/12/22 09:01:44;;;;;;;24.33;19.10;;;12.40;99.90;;;;;;4592987;19;20010;-29
2022/12/22 09:03:15;;;;;;;24.53;19.93;;;12.40;99.90;;;;;;4591280;19;20461;-32
2022/12/22 09:04:47;;;;;;;26.88;21.35;;;12.50;99.90;;;;;;4591633;19;20022;-30
2022/12/22 09:06:19;;;;;;;25.58;21.63;;;12.50;99.90;;;;;;4592592;19;20492;-28
2022/12/22 09:07:50;;;;;;;28.00;21.23;;;12.50;99.90;;;;;;4592850;19;20014;-33
2022/12/22 09:09:21;;;;;;;25.73;20.92;;;12.50;99.90;;;;;;4592077;19;20461;-31
2022/12/22 09:10:53;;;;;;;26.08;20.48;;;12.50;99.90;;;;;;4592603;19;20017;-32
2022/12/22 09:12:24;;;;;;;28.45;21.65;;;12.50;99.90;;;;;;4592496;19;20464;-27
2022/12/22 09:13:57;;;;;;;29.55;22.60;;;12.50;99.90;;;;;;4591566;19;20590;-29
2022/12/22 09:15:29;;;;;;;30.47;23.80;;;12.60;99.90;;;;;;4592639;19;20102;-28
2022/12/22 09:17:02;;;;;;;31.93;23.77;;;12.60;99.90;;;;;;4590258;19;20011;-29
2022/12/22 09:18:34;;;;;;;28.97;23.70;;;12.60;99.90;;;;;;4591167;19;20017;-29
2022/12/22 09:20:06;;;;;;;34.57;27.03;;;12.60;99.90;;;;;;4592045;19;20025;-30
2022/12/22 09:21:37;;;;;;;32.07;24.57;;;12.60;99.90;;;;;;4593275;19;20018;-31
2022/12/22 09:23:09;;;;;;;28.90;23.13;;;12.60;99.90;;;;;;4590417;19;20002;-27
2022/12/22 09:24:40;;;;;;;28.75;22.13;;;12.60;99.90;;;;;;4589279;19;20023;-29
2022/12/22 09:26:14;;;;;;;33.67;24.30;;;12.60;99.90;;;;;;4589888;19;20031;-29
2022/12/22 09:27:45;;;;;;;38.33;26.37;;;12.60;99.90;;;;;;4589386;19;20383;-28
2022/12/22 09:29:16;;;;;;;37.17;25.60;;;12.60;99.90;;;;;;4590910;19;20093;-28
2022/12/22 09:30:51;;;;;;;29.65;23.52;;;12.60;99.90;;;;;;4592093;19;20014;-27
2022/12/22 09:32:22;;;;;;;30.50;22.83;;;12.60;99.90;;;;;;4590185;19;19999;-29
2022/12/22 09:33:54;;;;;;;26.63;20.90;;;12.60;99.90;;;;;;4590628;19;20019;-29
2022/12/22 09:35:25;;;;;;;28.67;22.17;;;12.70;99.90;;;;;;4590278;19;20018;-28
2022/12/22 09:36:56;;;;;;;23.38;19.80;;;12.70;99.90;;;;;;4590783;19;20011;-30
2022/12/22 09:38:28;;;;;;;24.30;20.88;;;12.80;99.90;;;;;;4590639;19;20014;-30
2022/12/22 09:39:59;;;;;;;26.42;21.48;;;12.80;99.90;;;;;;4590203;19;20015;-28
2022/12/22 09:41:40;;;;;;;24.02;20.35;;;12.90;99.90;;;;;;4590285;19;20408;-27
2022/12/22 09:43:14;;;;;;;23.48;20.13;;;12.90;99.90;;;;;;4590206;19;20110;-28
2022/12/22 09:44:49;;;;;;;25.37;21.40;;;12.90;99.90;;;;;;4589445;19;20017;-29
2022/12/22 09:46:24;;;;;;;24.83;20.90;;;12.90;99.90;;;;;;4590086;19;20159;-28
2022/12/22 09:47:55;;;;;;;22.80;20.23;;;12.90;99.90;;;;;;4590707;19;20085;-30
2022/12/22 09:49:27;;;;;;;23.83;20.02;;;12.90;99.90;;;;;;4588896;19;20009;-27
2022/12/22 09:50:58;;;;;;;23.73;19.42;;;12.90;99.90;;;;;;4588955;19;20465;-26
2022/12/22 09:52:45;;;;;;;25.92;20.90;;;12.90;99.90;;;;;;4588836;19;20077;-27
2022/12/22 09:54:19;;;;;;;34.37;26.93;;;12.90;99.90;;;;;;4589489;19;20499;-27
2022/12/22 09:55:51;;;;;;;28.00;22.23;;;13.00;99.90;;;;;;4589570;19;20014;-27
2022/12/22 09:57:26;;;;;;;23.43;20.13;;;13.00;99.90;;;;;;4589765;19;20026;-31
2022/12/22 09:58:58;;;;;;;24.23;19.70;;;13.00;99.90;;;;;;4591652;19;20022;-29
2022/12/22 10:00:31;;;;;;;21.83;18.67;;;13.10;99.90;;;;;;4592877;19;20380;-31
2022/12/22 10:02:28;;;;;;;23.47;20.17;;;13.10;99.70;;;;;;4593585;19;20015;-28
2022/12/22 10:04:26;;;;;;;27.70;19.43;;;13.10;99.60;;;;;;4591185;19;20464;-28
2022/12/22 10:06:25;;;;;;;23.20;19.00;;;13.20;99.50;;;;;;4594324;19;20007;-27
2022/12/22 10:08:14;;;;;;;24.00;19.47;;;13.20;99.40;;;;;;4593455;19;20021;-28
2022/12/22 10:09:46;;;;;;;22.73;19.30;;;13.20;99.40;;;;;;4593276;19;20018;-29
2022/12/22 10:11:19;;;;;;;27.10;21.60;;;13.20;99.30;;;;;;4592441;19;20085;-28
2022/12/22 10:12:56;;;;;;;26.67;20.73;;;13.20;99.40;;;;;;4594360;19;20516;-29
2022/12/22 10:14:33;;;;;;;27.07;20.37;;;13.20;99.40;;;;;;4593992;19;20013;-30
2022/12/22 10:16:26;;;;;;;34.83;25.40;;;13.20;99.30;;;;;;4594957;19;20117;-29
2022/12/22 10:18:11;;;;;;;31.13;24.20;;;13.20;99.30;;;;;;4594476;19;20018;-29
2022/12/22 10:19:42;;;;;;;30.23;24.10;;;13.20;99.30;;;;;;4594576;19;20017;-30
2022/12/22 10:21:14;;;;;;;29.80;21.27;;;13.20;99.30;;;;;;4592252;19;20500;-29
2022/12/22 10:22:51;;;;;;;28.00;22.53;;;13.20;99.50;;;;;;4593285;19;20051;-29
2022/12/22 10:24:33;;;;;;;26.60;21.63;;;13.20;99.30;;;;;;4594401;19;20010;-29
2022/12/22 10:26:16;;;;;;;26.67;20.67;;;13.20;99.40;;;;;;4593616;19;20369;-29
2022/12/22 10:27:47;;;;;;;24.37;20.73;;;13.20;99.40;;;;;;4593436;19;20018;-29
2022/12/22 10:29:19;;;;;;;26.60;21.27;;;13.10;99.50;;;;;;4591155;19;20314;-31
2022/12/22 10:30:55;;;;;;;23.23;19.73;;;13.10;99.60;;;;;;4593160;19;20042;-29
2022/12/22 10:32:26;;;;;;;25.23;18.73;;;13.10;99.70;;;;;;4592832;19;20073;-30
2022/12/22 10:34:09;;;;;;;23.63;17.80;;;13.10;99.90;;;;;;4593800;19;20056;-30
2022/12/22 10:35:47;;;;;;;22.23;17.93;;;13.10;99.90;;;;;;4594395;19;20038;-31
2022/12/22 10:37:19;;;;;;;23.00;18.73;;;13.10;99.90;;;;;;4593674;19;20403;-32
2022/12/22 10:38:57;;;;;;;24.37;17.37;;;13.10;99.90;;;;;;4592423;19;20018;-27
2022/12/22 10:40:34;;;;;;;20.70;16.80;;;13.10;99.90;;;;;;4593118;19;20346;-29
2022/12/22 10:42:17;;;;;;;20.93;15.90;;;13.10;99.90;;;;;;4592129;19;20042;-29
2022/12/22 10:43:52;;;;;;;23.67;17.60;;;13.00;99.90;;;;;;4592725;19;20472;-27
2022/12/22 10:45:25;;;;;;;22.60;16.97;;;13.00;99.90;;;;;;4592336;19;20495;-29
2022/12/22 10:46:59;;;;;;;23.17;18.17;;;13.00;99.90;;;;;;4593745;19;20027;-31
2022/12/22 10:48:37;;;;;;;21.93;16.67;;;13.00;99.90;;;;;;4592544;19;20044;-30
2022/12/22 10:50:11;;;;;;;21.53;17.83;;;13.00;99.90;;;;;;4591219;19;20022;-30
2022/12/22 10:51:53;;;;;;;23.83;18.83;;;12.90;99.90;;;;;;4590903;19;20044;-31
2022/12/22 10:53:44;;;;;;;21.77;17.80;;;13.00;99.90;;;;;;4592903;19;20010;-34
2022/12/22 10:55:28;;;;;;;23.98;18.80;;;12.90;99.90;;;;;;4592507;19;20053;-29
2022/12/22 10:57:02;;;;;;;22.57;18.50;;;12.90;99.90;;;;;;4591478;19;20014;-30
2022/12/22 10:58:50;;;;;;;24.27;18.30;;;12.90;99.90;;;;;;4593111;19;20022;-29
2022/12/22 11:00:27;;;;;;;22.37;18.40;;;12.90;99.90;;;;;;4591963;19;20019;-30
2022/12/22 11:02:22;;;;;;;24.87;20.70;;;12.90;99.90;;;;;;4592699;19;20036;-33
2022/12/22 11:03:53;;;;;;;22.73;19.37;;;12.90;99.90;;;;;;4591923;19;20538;-31
2022/12/22 11:05:25;;;;;;;25.88;20.60;;;12.90;99.90;;;;;;4593454;19;20364;-29
2022/12/22 11:06:58;;;;;;;29.42;24.10;;;12.90;99.90;;;;;;4593221;19;20476;-31
2022/12/22 11:08:30;;;;;;;34.90;26.00;;;12.90;99.90;;;;;;4591539;19;20094;-31
2022/12/22 11:10:01;;;;;;;34.37;26.90;;;12.90;99.90;;;;;;4592908;19;20014;-29
2022/12/22 11:11:45;;;;;;;;;;;12.90;99.90;;;;;;4593252;19;20015;-31
2022/12/22 11:13:35;;;;;;;30.63;25.27;;;12.90;99.90;;;;;;4591929;19;19958;-29
2022/12/22 11:15:31;;;;;;;32.00;23.53;;;12.90;99.90;;;;;;4593614;19;20018;-29
2022/12/22 11:17:25;;;;;;;29.73;22.37;;;12.80;99.90;;;;;;4593661;19;20018;-31
2022/12/22 11:19:25;;;;;;;34.20;26.80;;;12.80;99.90;;;;;;4592131;19;20038;-30
2022/12/22 11:21:10;;;;;;;43.07;30.57;;;12.80;99.90;;;;;;4592498;19;20019;-28
2022/12/22 11:23:27;;;;;;;38.93;28.10;;;12.80;99.90;;;;;;4592009;19;20506;-30
2022/12/22 11:25:14;;;;;;;38.13;27.17;;;12.80;99.90;;;;;;4590246;19;20436;-33
2022/12/22 11:26:50;;;;;;;33.43;25.27;;;12.80;99.90;;;;;;4591117;19;20014;-29
2022/12/22 11:28:42;;;;;;;39.67;26.93;;;12.90;99.90;;;;;;4590566;19;20421;-29
2022/12/22 11:30:18;;;;;;;31.08;23.13;;;12.90;99.90;;;;;;4591028;19;20078;-29
2022/12/22 11:31:52;;;;;;;31.23;21.87;;;12.80;99.90;;;;;;4590760;19;20080;-30
2022/12/22 11:33:39;;;;;;;28.30;22.70;;;12.90;99.90;;;;;;4590323;19;20014;-29
2022/12/22 11:35:34;;;;;;;23.00;19.90;;;12.90;99.90;;;;;;4591161;19;20011;-30